Time;durP1;ratioP1;P1;durP2;ratioP2;P2;SDS_P1;SDS_P2;PMS_P1;PMS_P2;Temp;Humidity;BMP_temperature;BMP_pressure;BME280_temperature;BME280_humidity;BME280_pressure;Samples;Min_cycle;Max_cycle;Signal;HPM_P1;HPM_P2
2022/08/17 00:00:14;;;;;;;14.20;11.52;;;24.20;91.60;;;;;;5052813;28;20024;-72
2022/08/17 00:03:05;;;;;;;14.10;11.82;;;24.20;91.70;;;;;;5052243;28;20036;-72
2022/08/17 00:05:36;;;;;;;15.32;12.50;;;24.20;91.60;;;;;;5041127;28;20048;-72
2022/08/17 00:08:02;;;;;;;14.32;11.07;;;24.20;91.50;;;;;;5051629;28;20041;-70
2022/08/17 00:10:29;;;;;;;13.43;10.90;;;24.20;91.50;;;;;;5052886;28;20025;-72
2022/08/17 00:12:55;;;;;;;13.85;11.50;;;24.20;91.40;;;;;;5052860;28;20036;-72
2022/08/17 00:15:21;;;;;;;13.80;11.18;;;24.20;91.80;;;;;;5052721;28;20026;-72
2022/08/17 00:17:50;;;;;;;14.52;11.73;;;24.10;91.90;;;;;;5052090;28;20493;-72
2022/08/17 00:20:17;;;;;;;13.18;11.45;;;24.10;92.10;;;;;;5051546;28;20546;-72
2022/08/17 00:22:43;;;;;;;14.45;12.23;;;24.10;92.20;;;;;;5052586;28;20025;-72
2022/08/17 00:25:15;;;;;;;15.05;12.13;;;24.10;92.10;;;;;;5052913;28;20468;-71
2022/08/17 00:27:40;;;;;;;14.43;12.13;;;24.10;92.30;;;;;;5052363;28;20123;-72
2022/08/17 00:30:09;;;;;;;14.05;11.38;;;24.10;92.10;;;;;;5051728;28;20104;-72
2022/08/17 00:32:37;;;;;;;16.77;11.52;;;24.00;92.00;;;;;;5052580;28;20429;-72
2022/08/17 00:35:08;;;;;;;13.52;11.00;;;24.00;92.00;;;;;;5052608;28;20049;-71
2022/08/17 00:37:34;;;;;;;13.57;11.50;;;24.00;91.90;;;;;;5049497;28;20061;-72
2022/08/17 00:40:00;;;;;;;11.48;10.32;;;24.00;92.20;;;;;;5051492;28;20048;-72
2022/08/17 00:42:26;;;;;;;14.13;11.18;;;24.00;92.20;;;;;;5052232;28;20143;-72
2022/08/17 00:44:51;;;;;;;13.48;11.60;;;23.90;92.20;;;;;;5051654;28;20150;-72
2022/08/17 00:47:17;;;;;;;13.43;11.43;;;23.90;92.50;;;;;;5051896;28;20419;-72
2022/08/17 00:49:43;;;;;;;16.60;12.00;;;23.90;92.40;;;;;;5051965;28;20526;-73
2022/08/17 00:52:15;;;;;;;13.70;11.27;;;23.90;92.50;;;;;;5051853;28;20041;-72
2022/08/17 00:54:45;;;;;;;14.40;11.02;;;23.90;92.60;;;;;;5052359;28;20427;-71
2022/08/17 00:57:24;;;;;;;14.82;11.35;;;23.90;92.40;;;;;;5049348;28;20028;-72
2022/08/17 00:59:55;;;;;;;13.98;10.38;;;23.90;92.40;;;;;;5051913;28;20033;-72
2022/08/17 01:02:21;;;;;;;13.75;10.60;;;23.90;92.50;;;;;;5051425;28;20091;-72
2022/08/17 01:04:49;;;;;;;13.13;11.10;;;23.90;92.50;;;;;;5050906;28;20526;-72
2022/08/17 01:07:16;;;;;;;11.98;10.63;;;23.90;92.50;;;;;;5050898;28;20060;-71
2022/08/17 01:09:43;;;;;;;13.45;11.10;;;23.80;92.60;;;;;;5052121;28;20044;-71
2022/08/17 01:12:10;;;;;;;12.02;10.70;;;23.90;92.50;;;;;;5051298;28;20091;-71
2022/08/17 01:14:38;;;;;;;13.73;11.35;;;23.80;92.40;;;;;;5050969;28;20025;-71
2022/08/17 01:17:05;;;;;;;13.55;11.25;;;23.80;92.20;;;;;;5050592;28;20025;-71
2022/08/17 01:19:34;;;;;;;18.20;11.50;;;23.80;92.20;;;;;;5051502;28;20518;-71
2022/08/17 01:22:04;;;;;;;11.98;10.68;;;23.80;92.30;;;;;;5051725;28;20506;-71
2022/08/17 01:24:30;;;;;;;13.45;11.60;;;23.70;92.40;;;;;;5051991;28;20044;-72
2022/08/17 01:26:56;;;;;;;12.27;10.98;;;23.70;92.50;;;;;;5049512;28;20090;-70
2022/08/17 01:29:23;;;;;;;12.75;11.27;;;23.70;92.60;;;;;;5051529;28;20032;-71
2022/08/17 01:31:54;;;;;;;13.20;11.38;;;23.80;92.70;;;;;;5035481;28;20037;-71
2022/08/17 01:34:19;;;;;;;15.52;11.60;;;23.70;92.70;;;;;;5050846;28;20025;-71
2022/08/17 01:36:47;;;;;;;13.70;11.75;;;23.70;92.80;;;;;;5049417;28;20032;-71
2022/08/17 01:39:30;;;;;;;13.52;11.18;;;23.70;92.80;;;;;;5051660;28;20033;-71
2022/08/17 01:42:04;;;;;;;14.32;11.73;;;23.70;92.90;;;;;;5050600;28;20382;-71
2022/08/17 01:44:30;;;;;;;12.90;11.18;;;23.70;92.80;;;;;;5051562;28;20075;-71
2022/08/17 01:46:56;;;;;;;13.40;11.93;;;23.70;92.70;;;;;;5038294;28;20064;-72
2022/08/17 01:49:21;;;;;;;13.57;12.13;;;23.70;92.80;;;;;;5050839;28;20017;-71
2022/08/17 01:51:47;;;;;;;13.13;11.50;;;23.60;92.80;;;;;;5050712;28;20127;-71
2022/08/17 01:54:16;;;;;;;12.82;11.38;;;23.60;92.90;;;;;;5050480;28;20029;-69
2022/08/17 01:56:46;;;;;;;13.40;11.07;;;23.60;93.00;;;;;;5049869;28;20028;-70
2022/08/17 01:59:12;;;;;;;15.25;11.30;;;23.50;93.20;;;;;;5051313;28;20456;-70
2022/08/17 02:01:38;;;;;;;13.35;10.98;;;23.50;93.20;;;;;;5049756;28;20420;-70
2022/08/17 02:04:05;;;;;;;14.70;11.23;;;23.50;93.40;;;;;;5050965;28;20075;-72
2022/08/17 02:06:34;;;;;;;17.50;12.57;;;23.50;93.60;;;;;;5048650;28;20053;-71
2022/08/17 02:09:00;;;;;;;13.38;11.52;;;23.50;93.60;;;;;;5049933;28;20512;-71
2022/08/17 02:11:26;;;;;;;15.18;12.00;;;23.40;93.80;;;;;;5050263;28;20025;-71
2022/08/17 02:13:52;;;;;;;14.35;12.73;;;23.40;93.80;;;;;;5051649;28;20032;-71
2022/08/17 02:16:18;;;;;;;14.00;12.25;;;23.40;93.80;;;;;;5049434;28;20033;-71
2022/08/17 02:18:45;;;;;;;14.93;12.38;;;23.30;93.80;;;;;;5050292;28;20387;-71
2022/08/17 02:21:12;;;;;;;14.43;12.57;;;23.30;93.80;;;;;;5049580;28;20064;-70
2022/08/17 02:23:42;;;;;;;13.82;12.13;;;23.30;93.90;;;;;;5048127;28;20029;-70
2022/08/17 02:26:08;;;;;;;13.02;11.63;;;23.30;94.10;;;;;;5050099;28;20219;-70
2022/08/17 02:28:33;;;;;;;13.25;11.88;;;23.30;94.20;;;;;;5050683;28;20246;-70
2022/08/17 02:31:11;;;;;;;14.30;11.75;;;23.30;94.10;;;;;;5049699;28;20108;-70
2022/08/17 02:33:37;;;;;;;15.35;12.18;;;23.30;94.30;;;;;;5036078;28;20029;-70
2022/08/17 02:36:04;;;;;;;13.55;12.10;;;23.20;94.30;;;;;;5048533;28;20119;-71
2022/08/17 02:38:30;;;;;;;12.55;11.25;;;23.20;94.40;;;;;;5048046;28;20032;-71
2022/08/17 02:40:57;;;;;;;13.20;11.25;;;23.20;94.50;;;;;;5048518;28;20396;-71
2022/08/17 02:43:23;;;;;;;12.80;11.40;;;23.20;94.50;;;;;;5050471;28;20036;-71
2022/08/17 02:45:49;;;;;;;13.50;11.57;;;23.20;94.50;;;;;;5032444;28;20051;-71
2022/08/17 02:48:15;;;;;;;13.90;12.30;;;23.20;94.70;;;;;;5057311;28;20032;-71
2022/08/17 02:50:40;;;;;;;14.10;12.38;;;23.10;94.70;;;;;;5050180;28;20040;-71
2022/08/17 02:53:06;;;;;;;14.07;12.38;;;23.10;94.80;;;;;;5050025;28;20059;-70
2022/08/17 02:55:39;;;;;;;13.05;11.05;;;23.10;94.80;;;;;;5050167;28;20029;-71
2022/08/17 02:58:06;;;;;;;12.93;11.53;;;23.10;94.90;;;;;;5049498;28;20079;-71
2022/08/17 03:00:46;;;;;;;12.90;11.30;;;23.10;95.00;;;;;;5031788;28;20108;-71
2022/08/17 03:03:17;;;;;;;15.25;13.07;;;23.00;95.00;;;;;;5049974;28;20033;-71
2022/08/17 03:05:45;;;;;;;13.95;12.00;;;23.00;95.20;;;;;;5050928;28;20055;-71
2022/08/17 03:08:11;;;;;;;13.73;12.05;;;23.00;95.30;;;;;;5049386;28;20093;-71
2022/08/17 03:10:37;;;;;;;15.05;11.70;;;22.90;95.40;;;;;;5053567;28;20025;-71
2022/08/17 03:13:03;;;;;;;13.90;12.20;;;23.00;95.20;;;;;;5053776;28;20471;-71
2022/08/17 03:15:32;;;;;;;14.43;12.02;;;22.90;95.30;;;;;;5054592;28;20389;-71
2022/08/17 03:17:59;;;;;;;12.63;10.77;;;22.80;95.40;;;;;;5053498;28;20267;-71
2022/08/17 03:20:27;;;;;;;12.93;10.68;;;22.80;95.30;;;;;;5054020;28;20040;-71
2022/08/17 03:22:54;;;;;;;14.10;12.02;;;22.90;95.50;;;;;;5053608;28;20029;-71
2022/08/17 03:25:28;;;;;;;11.60;10.27;;;22.90;95.50;;;;;;5053221;28;20219;-71
2022/08/17 03:27:55;;;;;;;13.95;11.18;;;22.90;95.50;;;;;;5049349;28;20037;-71
2022/08/17 03:30:22;;;;;;;14.60;11.75;;;22.90;95.50;;;;;;5052959;28;20024;-71
2022/08/17 03:32:50;;;;;;;12.35;10.90;;;22.90;95.50;;;;;;5036788;28;20104;-71
2022/08/17 03:35:18;;;;;;;12.63;10.73;;;22.90;95.70;;;;;;5054336;28;20029;-71
2022/08/17 03:37:44;;;;;;;13.90;11.45;;;22.90;95.70;;;;;;5053083;28;20036;-71
2022/08/17 03:40:10;;;;;;;14.15;12.30;;;22.90;95.70;;;;;;5054193;28;20025;-71
2022/08/17 03:42:38;;;;;;;12.27;11.05;;;22.90;95.70;;;;;;5053554;28;20025;-71
2022/08/17 03:45:07;;;;;;;13.07;11.75;;;22.90;95.80;;;;;;5054354;28;20385;-71
2022/08/17 03:58:48;;;;;;;13.77;11.40;;;22.90;96.00;;;;;;5052072;28;20629;-71
2022/08/17 04:01:14;;;;;;;16.17;11.07;;;22.90;96.10;;;;;;5053489;28;20025;-71
2022/08/17 04:03:40;;;;;;;14.02;11.43;;;22.80;96.10;;;;;;5053140;28;20075;-72
2022/08/17 04:06:06;;;;;;;12.02;10.77;;;22.80;96.20;;;;;;5052762;28;20037;-72
2022/08/17 04:08:31;;;;;;;14.20;11.65;;;22.90;96.20;;;;;;5052625;28;20036;-71
2022/08/17 04:10:59;;;;;;;11.90;10.70;;;22.80;96.20;;;;;;5053086;28;20024;-71
2022/08/17 04:13:24;;;;;;;18.55;10.77;;;22.90;96.40;;;;;;5049299;28;20472;-71
2022/08/17 04:15:50;;;;;;;13.40;10.95;;;22.80;96.40;;;;;;5053319;28;20025;-71
2022/08/17 04:18:16;;;;;;;13.13;10.90;;;22.90;96.50;;;;;;5051874;28;20029;-72
2022/08/17 04:20:42;;;;;;;13.45;11.10;;;22.80;96.40;;;;;;5052404;28;20047;-72
2022/08/17 04:23:14;;;;;;;12.82;11.30;;;22.90;96.50;;;;;;5051892;28;20541;-71
2022/08/17 04:25:43;;;;;;;12.27;10.98;;;22.80;96.50;;;;;;5052197;28;20037;-71
2022/08/17 04:28:09;;;;;;;13.63;12.23;;;22.90;96.50;;;;;;5052464;28;20377;-72
2022/08/17 04:30:37;;;;;;;13.40;10.90;;;22.90;96.60;;;;;;5052309;28;20082;-72
2022/08/17 04:33:10;;;;;;;14.27;11.63;;;22.90;96.70;;;;;;5038832;28;20021;-72
2022/08/17 04:35:42;;;;;;;14.00;12.07;;;22.90;96.70;;;;;;5053335;28;20033;-72
2022/08/17 04:38:11;;;;;;;16.05;12.25;;;22.90;96.70;;;;;;5050737;28;20384;-71
2022/08/17 04:43:23;;;;;;;13.13;11.10;;;23.00;96.90;;;;;;5052016;28;20468;-80
2022/08/17 04:45:53;;;;;;;12.93;11.55;;;23.00;97.00;;;;;;5051914;28;20392;-78
2022/08/17 04:48:19;;;;;;;15.18;11.77;;;23.00;97.00;;;;;;5051763;28;20065;-76
2022/08/17 04:50:47;;;;;;;16.02;12.10;;;23.00;97.00;;;;;;5052302;28;20047;-71
2022/08/17 04:53:14;;;;;;;13.45;12.05;;;23.00;97.00;;;;;;5051208;28;20025;-70
2022/08/17 04:55:40;;;;;;;16.33;12.68;;;23.10;97.10;;;;;;5052414;28;20033;-70
2022/08/17 04:58:05;;;;;;;13.38;11.73;;;23.10;97.10;;;;;;5051238;28;20028;-71
2022/08/17 05:00:32;;;;;;;17.58;13.60;;;23.10;97.10;;;;;;5051343;28;20028;-71
2022/08/17 05:02:58;;;;;;;14.10;12.70;;;23.10;97.00;;;;;;5051820;28;20075;-71
2022/08/17 05:05:27;;;;;;;14.13;11.63;;;23.10;96.90;;;;;;5051544;28;20688;-71
2022/08/17 05:07:55;;;;;;;15.18;11.88;;;23.20;96.90;;;;;;5050855;28;20178;-71
2022/08/17 05:10:21;;;;;;;13.38;11.40;;;23.20;96.80;;;;;;5051303;28;20021;-71
2022/08/17 05:12:55;;;;;;;15.77;12.93;;;23.30;96.70;;;;;;5051360;28;20029;-71
2022/08/17 05:15:21;;;;;;;13.85;11.02;;;23.40;96.70;;;;;;5051494;28;20311;-71
2022/08/17 05:17:46;;;;;;;13.15;11.65;;;23.40;96.60;;;;;;5050617;28;20040;-71
2022/08/17 05:20:12;;;;;;;14.90;11.70;;;23.50;96.50;;;;;;5051841;28;20032;-71
2022/08/17 05:22:48;;;;;;;14.90;12.90;;;23.50;96.40;;;;;;5051194;28;20029;-71
2022/08/17 05:25:13;;;;;;;14.85;13.18;;;23.60;96.10;;;;;;5051981;28;20112;-71
2022/08/17 05:27:39;;;;;;;15.70;12.63;;;23.60;95.80;;;;;;5050503;28;20175;-72
2022/08/17 05:30:05;;;;;;;15.18;12.45;;;23.60;95.60;;;;;;5051272;28;20040;-71
2022/08/17 05:32:30;;;;;;;14.90;12.15;;;23.70;95.50;;;;;;5048490;28;20084;-72
2022/08/17 05:34:58;;;;;;;12.90;11.40;;;23.70;95.50;;;;;;5038554;28;20535;-71
2022/08/17 05:37:24;;;;;;;14.13;12.27;;;23.80;95.50;;;;;;5050027;28;20040;-70
2022/08/17 05:39:49;;;;;;;15.23;12.77;;;23.90;95.40;;;;;;5051869;28;20025;-70
2022/08/17 05:42:18;;;;;;;15.80;12.02;;;23.90;95.30;;;;;;5050807;28;20033;-71
2022/08/17 05:44:43;;;;;;;13.98;11.85;;;24.00;95.30;;;;;;5051765;28;20025;-71
2022/08/17 05:47:09;;;;;;;14.88;12.93;;;24.00;95.30;;;;;;5048203;28;20110;-71
2022/08/17 05:49:35;;;;;;;14.02;11.80;;;24.10;95.00;;;;;;5050828;28;20117;-71
2022/08/17 05:52:22;;;;;;;13.07;11.65;;;24.20;94.10;;;;;;5049662;28;20123;-71
2022/08/17 05:55:15;;;;;;;15.73;12.07;;;24.20;94.00;;;;;;5051670;28;20024;-71
2022/08/17 05:57:54;;;;;;;16.15;12.73;;;24.30;94.30;;;;;;5050218;28;20086;-71
2022/08/17 06:00:49;;;;;;;15.40;13.30;;;24.30;94.20;;;;;;5050091;28;20025;-71
2022/08/17 06:03:32;;;;;;;16.60;12.27;;;24.40;94.10;;;;;;5049227;28;20072;-72
2022/08/17 06:06:24;;;;;;;14.18;11.27;;;24.50;94.30;;;;;;5049546;28;20073;-71
2022/08/17 06:09:04;;;;;;;13.95;10.75;;;24.50;94.40;;;;;;5047027;28;20044;-71
2022/08/17 06:12:08;;;;;;;14.52;11.70;;;24.60;94.50;;;;;;5049975;28;20452;-71
2022/08/17 06:14:46;;;;;;;16.00;11.25;;;24.60;94.50;;;;;;5009732;28;20030;-72
2022/08/17 06:17:17;;;;;;;14.02;11.48;;;24.70;94.60;;;;;;5040343;28;20035;-72
2022/08/17 06:19:46;;;;;;;15.23;10.73;;;24.70;94.60;;;;;;5051305;28;20044;-72
2022/08/17 06:22:14;;;;;;;14.43;11.52;;;24.80;94.50;;;;;;5049406;28;20036;-71
2022/08/17 06:24:52;;;;;;;11.00;9.48;;;24.80;94.30;;;;;;5050515;28;20384;-71
2022/08/17 06:27:39;;;;;;;13.25;10.85;;;24.80;94.20;;;;;;5048364;28;20041;-70
2022/08/17 06:30:21;;;;;;;16.65;11.10;;;24.90;94.20;;;;;;5040326;28;20112;-72
2022/08/17 06:32:48;;;;;;;12.80;10.00;;;24.90;94.10;;;;;;5043491;28;20033;-70
2022/08/17 06:35:18;;;;;;;14.35;9.50;;;24.90;93.60;;;;;;5048551;28;20028;-71
2022/08/17 06:38:03;;;;;;;12.88;9.30;;;25.00;93.40;;;;;;5047609;28;20033;-68
2022/08/17 06:40:44;;;;;;;;;;;25.00;93.40;;;;;;5049115;28;20292;-71
2022/08/17 06:43:11;;;;;;;11.13;8.07;;;25.10;93.60;;;;;;5049450;28;19908;-71
2022/08/17 06:45:47;;;;;;;11.70;9.00;;;25.10;92.90;;;;;;5053094;28;20110;-71
2022/08/17 06:48:45;;;;;;;11.38;8.98;;;25.10;92.80;;;;;;5051683;28;20041;-72
2022/08/17 06:51:30;;;;;;;9.05;7.93;;;25.20;92.70;;;;;;5032384;28;20032;-71
2022/08/17 06:54:04;;;;;;;;;;;25.20;92.70;;;;;;5055048;28;20380;-70
2022/08/17 06:56:52;;;;;;;9.43;7.97;;;25.30;92.90;;;;;;5052015;28;19920;-72
2022/08/17 06:59:23;;;;;;;10.13;7.57;;;25.30;92.40;;;;;;5049528;28;20082;-69
2022/08/17 07:01:51;;;;;;;9.32;7.60;;;25.40;92.40;;;;;;5052208;28;20043;-72
2022/08/17 07:04:20;;;;;;;9.15;7.05;;;25.50;92.30;;;;;;5054238;28;20064;-71
2022/08/17 07:06:55;;;;;;;11.10;7.70;;;25.50;92.00;;;;;;5052409;28;20041;-70
2022/08/17 07:09:24;;;;;;;9.30;8.07;;;25.70;91.80;;;;;;5052364;28;20028;-69
2022/08/17 07:11:57;;;;;;;9.82;7.03;;;25.70;91.70;;;;;;5052803;28;20033;-72
2022/08/17 07:14:50;;;;;;;8.50;7.03;;;25.80;90.90;;;;;;5050513;28;20040;-71
2022/08/17 07:17:17;;;;;;;8.63;7.40;;;25.90;91.00;;;;;;5052153;28;20056;-71
2022/08/17 07:19:47;;;;;;;9.02;7.72;;;25.90;90.50;;;;;;5052490;28;20036;-71
2022/08/17 07:22:47;;;;;;;10.43;7.20;;;26.00;90.40;;;;;;5052507;28;20472;-72
2022/08/17 07:25:18;;;;;;;9.15;7.22;;;26.10;90.30;;;;;;5047242;28;20033;-72
2022/08/17 07:27:54;;;;;;;11.00;6.68;;;26.10;90.00;;;;;;5055161;28;20037;-72
2022/08/17 07:30:26;;;;;;;9.00;7.03;;;26.20;89.50;;;;;;5054547;28;20029;-72
2022/08/17 07:33:07;;;;;;;9.23;6.75;;;26.30;89.50;;;;;;5060648;28;20079;-72
2022/08/17 07:35:38;;;;;;;8.18;6.45;;;26.40;88.90;;;;;;5053358;28;20017;-72
2022/08/17 07:38:23;;;;;;;9.23;7.32;;;26.40;88.10;;;;;;5059387;28;20025;-71
2022/08/17 07:41:01;;;;;;;9.82;6.63;;;26.50;88.30;;;;;;5056527;28;20039;-72
2022/08/17 07:43:39;;;;;;;6.82;6.00;;;26.50;87.60;;;;;;5051546;28;20036;-72
2022/08/17 07:49:08;;;;;;;9.50;6.13;;;26.70;86.80;;;;;;5046411;28;20044;-72
2022/08/17 07:51:38;;;;;;;7.15;6.35;;;26.80;86.30;;;;;;5051150;28;20091;-72
2022/08/17 07:54:21;;;;;;;6.85;5.65;;;26.90;85.80;;;;;;5051577;28;20040;-72
2022/08/17 07:57:23;;;;;;;10.18;6.18;;;26.90;84.80;;;;;;5049813;28;20484;-72
2022/08/17 08:00:00;;;;;;;8.00;5.72;;;27.00;84.50;;;;;;5052370;28;20037;-72
2022/08/17 08:02:37;;;;;;;8.10;6.05;;;27.10;84.10;;;;;;5046771;28;20473;-73
2022/08/17 08:05:17;;;;;;;7.65;5.45;;;27.20;83.50;;;;;;5042023;28;20061;-73
2022/08/17 08:07:58;;;;;;;8.43;4.78;;;27.20;82.10;;;;;;5038594;28;20120;-73
2022/08/17 08:10:34;;;;;;;8.45;5.68;;;27.30;81.30;;;;;;5046781;28;20041;-72
2022/08/17 08:13:03;;;;;;;6.72;4.90;;;27.40;80.50;;;;;;5032173;28;20025;-72
2022/08/17 08:15:40;;;;;;;5.38;4.50;;;27.50;80.40;;;;;;5051785;28;20033;-72
2022/08/17 08:18:24;;;;;;;6.85;5.40;;;27.60;79.70;;;;;;5032876;28;20063;-73
2022/08/17 08:21:31;;;;;;;13.00;4.80;;;27.60;80.00;;;;;;5050684;28;20086;-67
2022/08/17 08:24:28;;;;;;;9.70;4.40;;;27.70;80.10;;;;;;5047366;28;20122;-72
2022/08/17 08:26:59;;;;;;;5.57;4.20;;;27.80;78.90;;;;;;5046889;28;20040;-73
2022/08/17 08:29:28;;;;;;;5.25;4.15;;;27.90;78.40;;;;;;5046028;28;20028;-73
2022/08/17 08:32:18;;;;;;;4.80;4.30;;;27.90;77.20;;;;;;5051186;28;20047;-71
2022/08/17 08:35:05;;;;;;;6.32;4.60;;;28.00;76.80;;;;;;5051300;28;20033;-72
2022/08/17 08:37:43;;;;;;;5.07;4.00;;;28.00;76.20;;;;;;5050521;28;20040;-71
2022/08/17 08:40:21;;;;;;;7.93;3.80;;;28.10;75.50;;;;;;5051309;28;20067;-72
2022/08/17 08:43:05;;;;;;;4.15;3.55;;;28.20;74.00;;;;;;5048537;28;20040;-70
2022/08/17 08:45:57;;;;;;;4.00;3.55;;;28.20;73.10;;;;;;5064311;28;20025;-72
2022/08/17 08:48:49;;;;;;;4.68;3.53;;;28.30;73.10;;;;;;5050205;28;20048;-72
2022/08/17 08:51:32;;;;;;;4.40;3.97;;;28.30;72.80;;;;;;5042981;28;20448;-72
2022/08/17 08:54:08;;;;;;;5.80;3.97;;;28.40;72.50;;;;;;5049964;28;20175;-72
2022/08/17 08:56:37;;;;;;;5.30;4.10;;;28.50;72.00;;;;;;5050707;28;20384;-71
2022/08/17 08:59:28;;;;;;;6.30;4.50;;;28.50;72.10;;;;;;5051588;28;20029;-71
2022/08/17 09:02:45;;;;;;;10.00;9.02;;;28.60;72.40;;;;;;5039195;28;20036;-72
2022/08/17 09:05:30;;;;;;;11.20;8.95;;;28.70;72.30;;;;;;5054773;28;20041;-72
2022/08/17 09:08:26;;;;;;;9.00;5.28;;;28.80;71.10;;;;;;5037362;28;20047;-70
2022/08/17 09:11:03;;;;;;;6.15;4.72;;;28.80;70.70;;;;;;5050492;28;20029;-70
2022/08/17 09:13:51;;;;;;;7.65;5.35;;;28.80;68.90;;;;;;5051381;28;20033;-70
2022/08/17 09:16:29;;;;;;;7.97;4.50;;;28.90;70.00;;;;;;5048565;28;20028;-70
2022/08/17 09:19:13;;;;;;;5.30;4.80;;;29.00;70.10;;;;;;5039097;28;20033;-70
2022/08/17 09:22:02;;;;;;;;;;;29.00;70.30;;;;;;5045568;28;20059;-70
2022/08/17 09:24:32;;;;;;;6.47;4.03;;;29.10;71.50;;;;;;5051574;28;19955;-70
2022/08/17 09:27:13;;;;;;;5.32;3.75;;;29.20;69.80;;;;;;5048148;28;20037;-71
2022/08/17 09:29:47;;;;;;;4.68;3.55;;;29.20;68.70;;;;;;5050948;28;20036;-71
2022/08/17 09:32:30;;;;;;;4.47;3.72;;;29.30;67.80;;;;;;5041573;28;20029;-71
2022/08/17 09:35:00;;;;;;;4.97;3.60;;;29.40;67.60;;;;;;5033389;28;20057;-71
2022/08/17 09:37:36;;;;;;;7.07;3.85;;;29.40;67.10;;;;;;5049454;28;20052;-71
2022/08/17 09:40:12;;;;;;;4.97;3.47;;;29.50;66.90;;;;;;5050425;28;20037;-71
2022/08/17 09:42:47;;;;;;;4.35;3.53;;;29.50;66.10;;;;;;5050077;28;20358;-71
2022/08/17 09:45:34;;;;;;;4.35;3.90;;;29.70;66.50;;;;;;5049778;28;20032;-67
2022/08/17 09:48:18;;;;;;;4.57;3.85;;;29.70;65.60;;;;;;5049983;28;20503;-67
2022/08/17 09:50:59;;;;;;;7.63;4.55;;;29.80;65.80;;;;;;5049939;28;20070;-68
2022/08/17 09:53:26;;;;;;;6.32;4.07;;;29.90;65.10;;;;;;5049999;28;20369;-68
2022/08/17 09:56:09;;;;;;;5.57;3.90;;;29.90;64.60;;;;;;5051263;28;20036;-68
2022/08/17 09:59:02;;;;;;;5.22;4.13;;;30.00;65.10;;;;;;5050534;28;20419;-68
2022/08/17 10:01:44;;;;;;;5.28;3.90;;;30.10;64.00;;;;;;5049916;28;20032;-68
2022/08/17 10:04:38;;;;;;;4.80;3.53;;;30.20;64.00;;;;;;5049777;28;20366;-68
2022/08/17 10:07:16;;;;;;;5.13;3.65;;;30.20;64.50;;;;;;5049060;28;20060;-68
2022/08/17 10:10:10;;;;;;;9.50;3.83;;;30.40;64.40;;;;;;5044900;28;20392;-68
2022/08/17 10:12:44;;;;;;;5.45;3.35;;;30.40;62.90;;;;;;5046288;28;20029;-68
2022/08/17 10:15:15;;;;;;;6.28;3.50;;;30.50;62.00;;;;;;5048574;28;20357;-68
2022/08/17 10:17:56;;;;;;;6.72;3.53;;;30.50;61.50;;;;;;5041030;28;20495;-68
2022/08/17 10:20:30;;;;;;;5.72;3.05;;;30.60;62.10;;;;;;5048322;28;20504;-68
2022/08/17 10:26:14;;;;;;;4.80;3.67;;;30.80;62.00;;;;;;5040271;28;20508;-67
2022/08/17 10:28:45;;;;;;;7.05;3.85;;;30.90;61.20;;;;;;5047214;28;20123;-66
2022/08/17 10:31:23;;;;;;;5.07;3.95;;;30.90;60.90;;;;;;5048853;28;20487;-68
2022/08/17 10:34:34;;;;;;;4.93;3.58;;;30.90;60.80;;;;;;5050685;28;20067;-67
2022/08/17 10:37:23;;;;;;;5.78;3.30;;;31.00;59.70;;;;;;5039590;28;20025;-67
2022/08/17 10:40:09;;;;;;;5.00;3.10;;;31.10;59.70;;;;;;5046720;28;20037;-67
2022/08/17 10:42:56;;;;;;;4.93;3.38;;;31.10;58.60;;;;;;4990705;28;20477;-66
2022/08/17 10:45:51;;;;;;;4.20;3.60;;;31.10;58.60;;;;;;5045171;28;20029;-66
2022/08/17 10:48:25;;;;;;;4.75;3.85;;;31.10;59.00;;;;;;5051114;28;20095;-65
2022/08/17 10:51:04;;;;;;;5.15;3.22;;;31.20;58.70;;;;;;5048523;28;20029;-67
2022/08/17 10:53:30;;;;;;;5.18;3.55;;;31.20;58.50;;;;;;5064658;28;20039;-66
2022/08/17 10:56:11;;;;;;;5.72;3.35;;;31.20;57.90;;;;;;5049625;28;20025;-67
2022/08/17 10:58:59;;;;;;;4.55;3.60;;;31.20;58.30;;;;;;5031999;28;20030;-67
2022/08/17 11:01:28;;;;;;;4.07;3.38;;;31.30;58.20;;;;;;5049325;28;20104;-66
2022/08/17 11:03:57;;;;;;;5.78;2.97;;;31.30;58.00;;;;;;5049726;28;20468;-67
2022/08/17 11:06:28;;;;;;;5.05;3.40;;;31.40;57.20;;;;;;5049821;28;20512;-67
2022/08/17 11:09:00;;;;;;;3.67;3.17;;;31.40;57.10;;;;;;5048968;28;20072;-66
2022/08/17 11:11:46;;;;;;;4.10;3.00;;;31.50;56.90;;;;;;5049030;28;20068;-67
2022/08/17 11:14:15;;;;;;;3.92;2.90;;;31.50;56.60;;;;;;5049288;28;20055;-67
2022/08/17 11:16:46;;;;;;;4.78;3.13;;;31.60;56.00;;;;;;5048531;28;20433;-67
2022/08/17 11:19:37;;;;;;;5.60;3.47;;;31.60;55.90;;;;;;5050485;28;20082;-67
2022/08/17 11:22:40;;;;;;;3.92;3.00;;;31.70;56.70;;;;;;5049105;28;20108;-68
2022/08/17 11:25:37;;;;;;;5.05;3.28;;;31.70;57.00;;;;;;5049934;28;20041;-65
2022/08/17 11:28:23;;;;;;;8.05;3.97;;;31.70;56.70;;;;;;5041933;28;20053;-65
2022/08/17 11:31:05;;;;;;;6.25;3.65;;;31.70;58.10;;;;;;5044147;28;20037;-65
2022/08/17 11:33:31;;;;;;;5.32;3.65;;;31.70;57.40;;;;;;5051127;28;20461;-65
2022/08/17 11:36:18;;;;;;;5.50;3.60;;;31.70;57.60;;;;;;5042387;28;20048;-65
2022/08/17 11:39:10;;;;;;;4.13;2.90;;;31.70;57.40;;;;;;5052857;28;20419;-65
2022/08/17 11:42:06;;;;;;;4.60;3.22;;;31.80;55.50;;;;;;5021564;28;20048;-64
2022/08/17 11:44:52;;;;;;;5.15;3.33;;;31.80;55.40;;;;;;5049735;28;20076;-64
2022/08/17 11:53:37;;;;;;;3.70;3.00;;;32.10;55.50;;;;;;5052109;28;20443;-65
2022/08/17 11:56:03;;;;;;;6.95;3.80;;;32.20;55.80;;;;;;5052200;28;20091;-65
2022/08/17 11:58:28;;;;;;;5.72;3.35;;;32.30;56.50;;;;;;5052541;28;20033;-64
2022/08/17 12:01:07;;;;;;;4.82;3.40;;;32.30;56.40;;;;;;5052298;28;20104;-65
2022/08/17 12:03:33;;;;;;;3.63;2.78;;;32.40;56.10;;;;;;5043853;28;20032;-65
2022/08/17 12:12:44;;;;;;;4.70;3.38;;;32.50;54.40;;;;;;5051949;28;20060;-65
2022/08/17 12:15:17;;;;;;;5.22;3.38;;;32.50;54.70;;;;;;5052232;28;20032;-64
2022/08/17 12:17:51;;;;;;;3.70;3.20;;;32.60;55.80;;;;;;5051817;28;20028;-64
2022/08/17 12:20:31;;;;;;;4.70;3.47;;;32.60;55.60;;;;;;5052414;28;20049;-64
2022/08/17 12:23:05;;;;;;;5.78;3.55;;;32.60;54.70;;;;;;5051423;28;20060;-64
2022/08/17 12:25:54;;;;;;;8.95;3.38;;;32.60;54.40;;;;;;5058277;28;20021;-64
2022/08/17 12:28:32;;;;;;;4.75;3.53;;;32.60;54.80;;;;;;5051787;28;20045;-64
2022/08/17 12:31:04;;;;;;;5.38;4.50;;;32.60;54.40;;;;;;5051976;28;20037;-64
2022/08/17 12:33:30;;;;;;;3.60;3.28;;;32.70;54.40;;;;;;5051466;28;20070;-64
2022/08/17 12:36:03;;;;;;;5.68;4.43;;;32.70;54.90;;;;;;5052389;28;20080;-64
2022/08/17 12:38:33;;;;;;;5.35;4.13;;;32.80;55.40;;;;;;5051929;28;20464;-65
2022/08/17 12:41:24;;;;;;;4.20;3.72;;;32.80;54.80;;;;;;5051437;28;20052;-65
2022/08/17 12:44:00;;;;;;;4.32;3.45;;;32.90;53.90;;;;;;5048353;28;20053;-65
2022/08/17 12:46:26;;;;;;;4.72;3.10;;;32.90;53.50;;;;;;5051412;28;20182;-65
2022/08/17 12:48:52;;;;;;;3.60;3.08;;;33.00;53.00;;;;;;5051717;28;20446;-65
2022/08/17 12:51:17;;;;;;;3.95;3.05;;;33.00;52.80;;;;;;5051102;28;20123;-65
2022/08/17 12:53:53;;;;;;;5.68;3.08;;;33.10;51.50;;;;;;5058875;28;20047;-65
2022/08/17 12:56:19;;;;;;;4.53;3.10;;;33.10;50.90;;;;;;5050830;28;20037;-64
2022/08/17 12:58:54;;;;;;;4.20;3.15;;;33.20;51.30;;;;;;5051659;28;20085;-64
2022/08/17 13:01:22;;;;;;;4.18;2.90;;;33.30;51.20;;;;;;5050054;28;20036;-64
2022/08/17 13:03:51;;;;;;;4.35;3.30;;;33.40;51.30;;;;;;5051353;28;20044;-64
2022/08/17 13:06:33;;;;;;;4.78;3.35;;;33.50;50.60;;;;;;5050230;28;20189;-64
2022/08/17 13:09:28;;;;;;;4.10;3.25;;;33.50;50.70;;;;;;5046053;28;20464;-64
2022/08/17 13:12:00;;;;;;;6.65;3.38;;;33.60;50.90;;;;;;5045413;28;20040;-64
2022/08/17 13:14:27;;;;;;;4.90;3.00;;;33.50;51.10;;;;;;5052002;28;20093;-64
2022/08/17 13:17:00;;;;;;;4.55;2.80;;;33.50;50.00;;;;;;5050710;28;20432;-64
2022/08/17 13:19:29;;;;;;;5.97;3.40;;;33.50;49.10;;;;;;5042323;28;20032;-64
2022/08/17 13:22:00;;;;;;;6.03;3.40;;;33.50;49.40;;;;;;5050521;28;20041;-64
2022/08/17 13:24:31;;;;;;;5.07;3.53;;;33.40;49.80;;;;;;5050599;28;20376;-64
2022/08/17 13:26:58;;;;;;;3.30;2.80;;;33.40;50.10;;;;;;5049360;28;20033;-64
2022/08/17 13:29:31;;;;;;;5.20;2.95;;;33.30;49.30;;;;;;5050808;28;20423;-64
2022/08/17 13:32:03;;;;;;;5.20;3.22;;;33.30;49.30;;;;;;5052770;28;20029;-64
2022/08/17 13:34:32;;;;;;;5.10;3.20;;;33.30;48.80;;;;;;5044218;28;20080;-64
2022/08/17 13:37:16;;;;;;;5.00;3.00;;;33.50;50.10;;;;;;5050768;28;20118;-65
2022/08/17 13:39:42;;;;;;;3.85;3.08;;;33.70;49.60;;;;;;5051064;28;20036;-65
2022/08/17 13:42:47;;;;;;;4.22;3.00;;;33.80;50.00;;;;;;5050623;28;20029;-65
2022/08/17 13:48:07;;;;;;;4.63;3.25;;;34.10;50.20;;;;;;5050454;28;20102;-65